Lake Clark National Park, AK

2:56 AM AKDT on April 19, 2015 (GMT -0800)
RAWS | | Change Station
CLOSE
Current Station
Personal Weather Station
Location: Port Alsworth, AK
Elevation: 2314 ft
Nearby Weather Stations

Elev 2314 ft 60.61 °N, 154.32 °W | Updated 52 minutes ago

Light Rain
Light Rain
34 °F
Feels Like 23 °F
N
18
Wind Variable Wind from ESE
Gusts 29.0 mph

Today
High -- | Low -- °F
--% Chance of Precip.
Yesterday
High -- | Low -- °F
Precip. -- in
6:48 AM 9:47 PM
New Moon, 1% visible
Pressure 29.21 in
Visibility 10.0 miles
Clouds Overcast 2200 ft
Windchill 23 °F
Dew Point 31 °F
Humidity 90%
Rainfall in
Snow Depth Not available.
UV 0 out of 12
Pollen Not available.
Air Quality Not available.
Flu Activity Sporadic
METAR PASV 190955Z AUTO 30002KT 10SM -RA OVC022 02/02 A2919 RMK AO2 SHRAB0825E0925 SLP890 P0001 T00220015 $

More Conditions Fewer Conditions

Pressure 29.21 in
Visibility 10.0 miles
Clouds Overcast 2200 ft
Windchill 23 °F
Dew Point 31 °F
Humidity 90%
Rainfall in
Snow Depth Not available.
UV 0 out of 12
Pollen Not available.
Air Quality Not available.
Flu Activity Sporadic
METAR PASV 190955Z AUTO 30002KT 10SM -RA OVC022 02/02 A2919 RMK AO2 SHRAB0825E0925 SLP890 P0001 T00220015 $

More Conditions Fewer Conditions

10-Day Weather Forecast

Almanac

Astronomy

Apr. 19, 2015 Rise Set
Actual Time
Civil Twilight
Nautical Twilight
Astronomical Twilight
Moon
Length of Visible Light
Length of Day
Tomorrow will be .
, % of the Moon is Illuminated

Today's Extremes

State Highs State Lows

Community

WunderPhotos

Upload Photos

1,814,759 photos uploaded!

WunderBlogs® & News

Nearby

Air Quality

  Air Quality AQ Index Pollutant
Not available.

Snow Depth

Station Depth Elevation

Earthquake Activity

City Distance Mag. Time & Date
Minimum magnitude displayed is 2.5.

Coastal Water Temperatures

Place Temperature

Stations

Nearby Weather Stations

Station Location Temp. Windchill Dew Point Humidity Wind Precip. Elev Updated Type